Terminal Aerodrome Forecast
Issued by NWS

Home | Current Version | Previous Version | Text Only | Print | Product List | Glossary On
Versions: 1 2 3 4 5 6 7 8 9 10 11 12 13 14 15 16
000
FTAK31 PAFA 311740
TAFAMC
TAF
PAMC 311740Z 3118/0118 03008KT P6SM BKN025 OVC040
     FM312100 02008KT P6SM BKN050 BKN100
     FM010500 03004KT P6SM BKN100=

USA.gov is the U.S. government's official web portal to all federal, state and local government web resources and services.